sensor_id;sensor_type;location;lat;lon;timestamp;P1;durP1;ratioP1;P2;durP2;ratioP2
67941;SDS011;54731;42.600;23.476;2024-03-23T00:54:15;3.65;;;1.92;;
67941;SDS011;54731;42.600;23.476;2024-03-23T00:56:40;6.00;;;2.40;;
67941;SDS011;54731;42.600;23.476;2024-03-23T00:59:05;6.70;;;2.60;;
67941;SDS011;54731;42.600;23.476;2024-03-23T01:01:30;6.23;;;2.50;;
67941;SDS011;54731;42.600;23.476;2024-03-23T01:03:56;4.60;;;2.20;;
67941;SDS011;54731;42.600;23.476;2024-03-23T01:06:21;4.30;;;2.15;;
67941;SDS011;54731;42.600;23.476;2024-03-23T01:08:46;5.27;;;2.23;;
67941;SDS011;54731;42.600;23.476;2024-03-23T01:11:12;4.83;;;2.20;;
67941;SDS011;54731;42.600;23.476;2024-03-23T01:13:37;5.03;;;2.20;;
67941;SDS011;54731;42.600;23.476;2024-03-23T01:16:02;6.57;;;2.50;;
67941;SDS011;54731;42.600;23.476;2024-03-23T01:18:28;4.87;;;2.27;;
67941;SDS011;54731;42.600;23.476;2024-03-23T01:20:53;5.00;;;3.03;;
67941;SDS011;54731;42.600;23.476;2024-03-23T01:23:18;3.97;;;2.35;;
67941;SDS011;54731;42.600;23.476;2024-03-23T01:25:44;4.40;;;2.43;;
67941;SDS011;54731;42.600;23.476;2024-03-23T01:28:16;7.43;;;2.67;;
67941;SDS011;54731;42.600;23.476;2024-03-23T01:30:41;5.53;;;2.60;;
67941;SDS011;54731;42.600;23.476;2024-03-23T01:33:07;5.07;;;2.70;;
67941;SDS011;54731;42.600;23.476;2024-03-23T01:35:32;7.17;;;3.50;;
67941;SDS011;54731;42.600;23.476;2024-03-23T01:37:58;6.27;;;2.83;;
67941;SDS011;54731;42.600;23.476;2024-03-23T01:40:23;7.40;;;3.73;;
67941;SDS011;54731;42.600;23.476;2024-03-23T01:42:55;7.53;;;3.23;;
67941;SDS011;54731;42.600;23.476;2024-03-23T01:45:21;7.43;;;3.25;;
67941;SDS011;54731;42.600;23.476;2024-03-23T01:47:46;6.43;;;2.90;;
67941;SDS011;54731;42.600;23.476;2024-03-23T01:50:12;6.40;;;3.38;;
67941;SDS011;54731;42.600;23.476;2024-03-23T01:52:38;7.57;;;2.70;;
67941;SDS011;54731;42.600;23.476;2024-03-23T01:55:03;8.23;;;3.63;;
67941;SDS011;54731;42.600;23.476;2024-03-23T01:57:29;7.43;;;3.83;;
67941;SDS011;54731;42.600;23.476;2024-03-23T01:59:54;5.77;;;3.10;;
67941;SDS011;54731;42.600;23.476;2024-03-23T02:02:20;7.73;;;3.13;;
67941;SDS011;54731;42.600;23.476;2024-03-23T02:04:45;4.57;;;2.90;;
67941;SDS011;54731;42.600;23.476;2024-03-23T02:07:10;5.53;;;2.80;;
67941;SDS011;54731;42.600;23.476;2024-03-23T02:09:36;3.77;;;2.17;;
67941;SDS011;54731;42.600;23.476;2024-03-23T02:12:01;5.87;;;2.70;;
67941;SDS011;54731;42.600;23.476;2024-03-23T02:14:27;5.20;;;2.45;;
67941;SDS011;54731;42.600;23.476;2024-03-23T02:16:53;4.77;;;2.37;;
67941;SDS011;54731;42.600;23.476;2024-03-23T02:19:18;4.13;;;2.60;;
67941;SDS011;54731;42.600;23.476;2024-03-23T02:21:43;6.07;;;2.90;;
67941;SDS011;54731;42.600;23.476;2024-03-23T02:24:09;5.30;;;2.60;;
67941;SDS011;54731;42.600;23.476;2024-03-23T02:26:34;5.10;;;2.90;;
67941;SDS011;54731;42.600;23.476;2024-03-23T02:28:59;5.63;;;2.70;;
67941;SDS011;54731;42.600;23.476;2024-03-23T02:31:25;5.63;;;3.23;;
67941;SDS011;54731;42.600;23.476;2024-03-23T02:33:50;6.53;;;2.77;;
67941;SDS011;54731;42.600;23.476;2024-03-23T02:36:15;10.40;;;5.43;;
67941;SDS011;54731;42.600;23.476;2024-03-23T02:38:40;6.35;;;2.85;;
67941;SDS011;54731;42.600;23.476;2024-03-23T02:41:06;6.13;;;3.07;;
67941;SDS011;54731;42.600;23.476;2024-03-23T02:43:31;5.47;;;2.77;;
67941;SDS011;54731;42.600;23.476;2024-03-23T02:45:56;5.73;;;2.87;;
67941;SDS011;54731;42.600;23.476;2024-03-23T02:48:22;4.47;;;2.33;;
67941;SDS011;54731;42.600;23.476;2024-03-23T02:50:47;5.33;;;2.90;;
67941;SDS011;54731;42.600;23.476;2024-03-23T02:53:12;5.90;;;2.90;;
67941;SDS011;54731;42.600;23.476;2024-03-23T02:55:38;6.90;;;2.45;;
67941;SDS011;54731;42.600;23.476;2024-03-23T02:58:03;5.07;;;2.40;;
67941;SDS011;54731;42.600;23.476;2024-03-23T03:00:28;5.60;;;2.60;;
67941;SDS011;54731;42.600;23.476;2024-03-23T03:02:54;5.27;;;2.37;;
67941;SDS011;54731;42.600;23.476;2024-03-23T03:05:19;4.90;;;2.57;;
67941;SDS011;54731;42.600;23.476;2024-03-23T03:07:44;5.60;;;2.70;;
67941;SDS011;54731;42.600;23.476;2024-03-23T03:10:10;6.60;;;2.50;;
67941;SDS011;54731;42.600;23.476;2024-03-23T03:12:35;8.20;;;2.77;;
67941;SDS011;54731;42.600;23.476;2024-03-23T03:15:00;6.03;;;2.20;;
67941;SDS011;54731;42.600;23.476;2024-03-23T03:17:26;5.30;;;2.72;;
67941;SDS011;54731;42.600;23.476;2024-03-23T03:19:51;5.20;;;2.87;;
67941;SDS011;54731;42.600;23.476;2024-03-23T03:22:16;8.07;;;3.00;;
67941;SDS011;54731;42.600;23.476;2024-03-23T03:24:41;4.50;;;2.53;;
67941;SDS011;54731;42.600;23.476;2024-03-23T03:27:07;5.63;;;2.43;;
67941;SDS011;54731;42.600;23.476;2024-03-23T03:29:32;4.13;;;2.43;;
67941;SDS011;54731;42.600;23.476;2024-03-23T03:31:57;5.97;;;2.80;;
67941;SDS011;54731;42.600;23.476;2024-03-23T03:34:23;6.80;;;3.27;;
67941;SDS011;54731;42.600;23.476;2024-03-23T03:36:48;13.10;;;4.83;;
67941;SDS011;54731;42.600;23.476;2024-03-23T03:39:13;13.00;;;4.43;;
67941;SDS011;54731;42.600;23.476;2024-03-23T03:41:38;6.77;;;2.97;;
67941;SDS011;54731;42.600;23.476;2024-03-23T03:44:04;5.57;;;2.73;;
67941;SDS011;54731;42.600;23.476;2024-03-23T03:46:29;7.73;;;3.00;;
67941;SDS011;54731;42.600;23.476;2024-03-23T03:48:54;5.63;;;2.83;;
67941;SDS011;54731;42.600;23.476;2024-03-23T03:51:20;5.43;;;3.30;;
67941;SDS011;54731;42.600;23.476;2024-03-23T03:53:45;5.63;;;2.80;;
67941;SDS011;54731;42.600;23.476;2024-03-23T03:56:10;9.30;;;3.03;;
67941;SDS011;54731;42.600;23.476;2024-03-23T03:58:36;8.10;;;3.00;;
67941;SDS011;54731;42.600;23.476;2024-03-23T04:01:01;4.60;;;2.67;;
67941;SDS011;54731;42.600;23.476;2024-03-23T04:03:26;5.72;;;2.63;;
67941;SDS011;54731;42.600;23.476;2024-03-23T04:05:55;5.13;;;2.60;;
67941;SDS011;54731;42.600;23.476;2024-03-23T04:08:20;5.45;;;3.35;;
67941;SDS011;54731;42.600;23.476;2024-03-23T04:10:46;5.05;;;2.72;;
67941;SDS011;54731;42.600;23.476;2024-03-23T04:13:14;5.80;;;2.90;;
67941;SDS011;54731;42.600;23.476;2024-03-23T04:15:40;6.05;;;2.95;;
67941;SDS011;54731;42.600;23.476;2024-03-23T04:18:05;7.75;;;3.95;;
67941;SDS011;54731;42.600;23.476;2024-03-23T04:20:31;9.10;;;3.93;;
67941;SDS011;54731;42.600;23.476;2024-03-23T04:22:56;9.50;;;3.07;;
67941;SDS011;54731;42.600;23.476;2024-03-23T04:25:22;7.60;;;2.67;;
67941;SDS011;54731;42.600;23.476;2024-03-23T04:27:47;6.97;;;3.50;;
67941;SDS011;54731;42.600;23.476;2024-03-23T04:30:12;4.43;;;2.60;;
67941;SDS011;54731;42.600;23.476;2024-03-23T04:32:38;4.78;;;2.70;;
67941;SDS011;54731;42.600;23.476;2024-03-23T04:35:03;5.27;;;2.57;;
67941;SDS011;54731;42.600;23.476;2024-03-23T04:37:29;5.83;;;2.30;;
67941;SDS011;54731;42.600;23.476;2024-03-23T04:39:54;9.40;;;3.10;;
67941;SDS011;54731;42.600;23.476;2024-03-23T04:42:19;7.60;;;3.30;;
67941;SDS011;54731;42.600;23.476;2024-03-23T04:44:45;9.33;;;3.40;;
67941;SDS011;54731;42.600;23.476;2024-03-23T04:47:10;13.07;;;6.40;;
67941;SDS011;54731;42.600;23.476;2024-03-23T04:49:35;19.63;;;7.47;;
67941;SDS011;54731;42.600;23.476;2024-03-23T04:52:00;16.77;;;8.47;;
67941;SDS011;54731;42.600;23.476;2024-03-23T04:54:26;11.63;;;6.27;;
67941;SDS011;54731;42.600;23.476;2024-03-23T04:56:51;13.07;;;4.80;;
67941;SDS011;54731;42.600;23.476;2024-03-23T04:59:17;11.02;;;3.67;;
67941;SDS011;54731;42.600;23.476;2024-03-23T05:01:43;6.10;;;2.67;;
67941;SDS011;54731;42.600;23.476;2024-03-23T05:04:08;6.17;;;2.93;;
67941;SDS011;54731;42.600;23.476;2024-03-23T05:06:34;5.37;;;2.83;;
67941;SDS011;54731;42.600;23.476;2024-03-23T05:08:59;4.50;;;2.50;;
67941;SDS011;54731;42.600;23.476;2024-03-23T05:11:24;6.07;;;3.63;;
67941;SDS011;54731;42.600;23.476;2024-03-23T05:13:50;10.43;;;5.77;;
67941;SDS011;54731;42.600;23.476;2024-03-23T05:16:15;9.80;;;4.77;;
67941;SDS011;54731;42.600;23.476;2024-03-23T05:18:40;9.97;;;4.00;;
67941;SDS011;54731;42.600;23.476;2024-03-23T05:21:06;7.07;;;3.40;;
67941;SDS011;54731;42.600;23.476;2024-03-23T05:23:31;5.47;;;3.17;;
67941;SDS011;54731;42.600;23.476;2024-03-23T05:25:56;7.27;;;3.33;;
67941;SDS011;54731;42.600;23.476;2024-03-23T05:28:22;5.37;;;3.00;;
67941;SDS011;54731;42.600;23.476;2024-03-23T05:30:51;6.93;;;2.85;;
67941;SDS011;54731;42.600;23.476;2024-03-23T05:33:18;58.88;;;24.88;;
67941;SDS011;54731;42.600;23.476;2024-03-23T05:35:46;62.17;;;24.48;;
67941;SDS011;54731;42.600;23.476;2024-03-23T05:38:12;52.03;;;23.40;;
67941;SDS011;54731;42.600;23.476;2024-03-23T05:40:37;36.40;;;16.00;;
67941;SDS011;54731;42.600;23.476;2024-03-23T05:43:03;32.40;;;15.43;;
67941;SDS011;54731;42.600;23.476;2024-03-23T05:45:29;48.57;;;22.37;;
67941;SDS011;54731;42.600;23.476;2024-03-23T05:47:54;46.65;;;20.70;;
67941;SDS011;54731;42.600;23.476;2024-03-23T05:50:19;39.40;;;19.57;;
67941;SDS011;54731;42.600;23.476;2024-03-23T05:52:45;38.67;;;20.03;;
67941;SDS011;54731;42.600;23.476;2024-03-23T05:55:10;44.83;;;22.40;;
67941;SDS011;54731;42.600;23.476;2024-03-23T05:57:35;32.80;;;17.37;;
67941;SDS011;54731;42.600;23.476;2024-03-23T06:00:01;19.37;;;8.90;;
67941;SDS011;54731;42.600;23.476;2024-03-23T06:02:26;20.67;;;8.50;;
67941;SDS011;54731;42.600;23.476;2024-03-23T06:04:51;19.83;;;10.57;;
67941;SDS011;54731;42.600;23.476;2024-03-23T06:07:19;21.27;;;10.23;;
67941;SDS011;54731;42.600;23.476;2024-03-23T06:09:47;32.78;;;14.23;;
67941;SDS011;54731;42.600;23.476;2024-03-23T06:12:12;25.92;;;13.52;;
67941;SDS011;54731;42.600;23.476;2024-03-23T06:14:37;34.70;;;13.43;;
67941;SDS011;54731;42.600;23.476;2024-03-23T06:17:03;32.10;;;14.17;;
67941;SDS011;54731;42.600;23.476;2024-03-23T06:19:28;38.27;;;15.60;;
67941;SDS011;54731;42.600;23.476;2024-03-23T06:21:54;37.10;;;16.20;;
67941;SDS011;54731;42.600;23.476;2024-03-23T06:24:20;34.30;;;15.50;;
67941;SDS011;54731;42.600;23.476;2024-03-23T06:26:48;25.08;;;12.90;;
67941;SDS011;54731;42.600;23.476;2024-03-23T06:29:13;19.83;;;8.73;;
67941;SDS011;54731;42.600;23.476;2024-03-23T06:31:38;20.60;;;10.40;;
67941;SDS011;54731;42.600;23.476;2024-03-23T06:34:04;21.50;;;9.40;;
67941;SDS011;54731;42.600;23.476;2024-03-23T06:36:29;29.80;;;12.10;;
67941;SDS011;54731;42.600;23.476;2024-03-23T06:38:54;23.13;;;11.00;;
67941;SDS011;54731;42.600;23.476;2024-03-23T06:41:20;20.15;;;10.02;;
67941;SDS011;54731;42.600;23.476;2024-03-23T06:43:45;21.50;;;10.27;;
67941;SDS011;54731;42.600;23.476;2024-03-23T06:46:10;20.77;;;11.07;;
67941;SDS011;54731;42.600;23.476;2024-03-23T06:48:36;26.23;;;11.23;;
67941;SDS011;54731;42.600;23.476;2024-03-23T06:51:01;22.57;;;11.00;;
67941;SDS011;54731;42.600;23.476;2024-03-23T06:53:26;22.50;;;10.70;;
67941;SDS011;54731;42.600;23.476;2024-03-23T06:55:52;21.23;;;10.03;;
67941;SDS011;54731;42.600;23.476;2024-03-23T06:58:21;22.48;;;10.57;;
67941;SDS011;54731;42.600;23.476;2024-03-23T07:00:48;21.80;;;10.48;;
67941;SDS011;54731;42.600;23.476;2024-03-23T07:03:14;21.30;;;10.53;;
67941;SDS011;54731;42.600;23.476;2024-03-23T07:05:41;22.73;;;10.35;;
67941;SDS011;54731;42.600;23.476;2024-03-23T07:08:06;17.07;;;9.27;;
67941;SDS011;54731;42.600;23.476;2024-03-23T07:10:31;17.63;;;8.60;;
67941;SDS011;54731;42.600;23.476;2024-03-23T07:12:57;18.70;;;8.80;;
67941;SDS011;54731;42.600;23.476;2024-03-23T07:15:22;24.07;;;11.17;;
67941;SDS011;54731;42.600;23.476;2024-03-23T07:17:47;25.67;;;12.20;;
67941;SDS011;54731;42.600;23.476;2024-03-23T07:20:13;21.52;;;8.93;;
67941;SDS011;54731;42.600;23.476;2024-03-23T07:22:39;19.63;;;10.63;;
67941;SDS011;54731;42.600;23.476;2024-03-23T07:25:05;21.27;;;10.43;;
67941;SDS011;54731;42.600;23.476;2024-03-23T07:27:30;13.23;;;7.67;;
67941;SDS011;54731;42.600;23.476;2024-03-23T07:29:56;15.60;;;7.83;;
67941;SDS011;54731;42.600;23.476;2024-03-23T07:32:21;14.43;;;7.72;;
67941;SDS011;54731;42.600;23.476;2024-03-23T07:34:46;18.90;;;7.73;;
67941;SDS011;54731;42.600;23.476;2024-03-23T07:37:12;12.63;;;6.73;;
67941;SDS011;54731;42.600;23.476;2024-03-23T07:39:37;14.07;;;7.10;;
67941;SDS011;54731;42.600;23.476;2024-03-23T07:42:04;14.52;;;6.60;;
67941;SDS011;54731;42.600;23.476;2024-03-23T07:44:29;14.77;;;7.07;;
67941;SDS011;54731;42.600;23.476;2024-03-23T07:46:54;14.93;;;6.83;;
67941;SDS011;54731;42.600;23.476;2024-03-23T07:49:28;15.57;;;8.05;;
67941;SDS011;54731;42.600;23.476;2024-03-23T07:51:54;12.20;;;7.07;;
67941;SDS011;54731;42.600;23.476;2024-03-23T07:54:19;11.50;;;6.75;;
67941;SDS011;54731;42.600;23.476;2024-03-23T07:56:44;15.35;;;7.28;;
67941;SDS011;54731;42.600;23.476;2024-03-23T07:59:10;13.07;;;7.17;;
67941;SDS011;54731;42.600;23.476;2024-03-23T08:01:35;12.97;;;7.53;;
67941;SDS011;54731;42.600;23.476;2024-03-23T08:04:03;13.88;;;7.97;;
67941;SDS011;54731;42.600;23.476;2024-03-23T08:06:28;13.83;;;7.87;;
67941;SDS011;54731;42.600;23.476;2024-03-23T08:08:57;18.23;;;8.47;;
67941;SDS011;54731;42.600;23.476;2024-03-23T08:11:23;17.02;;;7.47;;
67941;SDS011;54731;42.600;23.476;2024-03-23T08:13:48;13.80;;;7.70;;
67941;SDS011;54731;42.600;23.476;2024-03-23T08:16:13;14.70;;;8.17;;
67941;SDS011;54731;42.600;23.476;2024-03-23T08:18:39;13.23;;;6.87;;
67941;SDS011;54731;42.600;23.476;2024-03-23T08:21:05;17.70;;;7.95;;
67941;SDS011;54731;42.600;23.476;2024-03-23T08:23:31;13.82;;;7.43;;
67941;SDS011;54731;42.600;23.476;2024-03-23T08:25:58;13.10;;;7.03;;
67941;SDS011;54731;42.600;23.476;2024-03-23T08:28:28;17.35;;;7.65;;
67941;SDS011;54731;42.600;23.476;2024-03-23T08:30:53;11.97;;;6.67;;
67941;SDS011;54731;42.600;23.476;2024-03-23T08:33:19;15.52;;;8.10;;
67941;SDS011;54731;42.600;23.476;2024-03-23T08:35:58;16.85;;;8.25;;
67941;SDS011;54731;42.600;23.476;2024-03-23T08:38:25;12.30;;;7.35;;
67941;SDS011;54731;42.600;23.476;2024-03-23T08:40:58;13.95;;;7.95;;
67941;SDS011;54731;42.600;23.476;2024-03-23T08:43:24;14.77;;;7.78;;
67941;SDS011;54731;42.600;23.476;2024-03-23T08:45:50;11.75;;;7.18;;
67941;SDS011;54731;42.600;23.476;2024-03-23T08:48:15;11.20;;;7.33;;
67941;SDS011;54731;42.600;23.476;2024-03-23T08:50:40;13.67;;;6.90;;
67941;SDS011;54731;42.600;23.476;2024-03-23T08:53:06;15.45;;;7.45;;
67941;SDS011;54731;42.600;23.476;2024-03-23T08:55:31;17.70;;;8.27;;
67941;SDS011;54731;42.600;23.476;2024-03-23T08:57:56;18.03;;;8.27;;
67941;SDS011;54731;42.600;23.476;2024-03-23T09:00:22;14.43;;;7.27;;
67941;SDS011;54731;42.600;23.476;2024-03-23T09:02:47;14.60;;;7.83;;
67941;SDS011;54731;42.600;23.476;2024-03-23T09:05:13;14.75;;;8.13;;
67941;SDS011;54731;42.600;23.476;2024-03-23T09:07:38;12.67;;;7.10;;
67941;SDS011;54731;42.600;23.476;2024-03-23T09:10:03;12.00;;;7.30;;
67941;SDS011;54731;42.600;23.476;2024-03-23T09:12:29;11.43;;;7.30;;
67941;SDS011;54731;42.600;23.476;2024-03-23T09:14:54;13.47;;;7.47;;
67941;SDS011;54731;42.600;23.476;2024-03-23T09:17:19;12.07;;;6.80;;
67941;SDS011;54731;42.600;23.476;2024-03-23T09:19:45;13.27;;;7.37;;
67941;SDS011;54731;42.600;23.476;2024-03-23T09:22:10;10.97;;;6.30;;
67941;SDS011;54731;42.600;23.476;2024-03-23T09:24:35;13.20;;;7.00;;
67941;SDS011;54731;42.600;23.476;2024-03-23T09:27:01;15.70;;;6.77;;
67941;SDS011;54731;42.600;23.476;2024-03-23T09:29:26;11.77;;;6.43;;
67941;SDS011;54731;42.600;23.476;2024-03-23T09:31:51;10.80;;;5.77;;
67941;SDS011;54731;42.600;23.476;2024-03-23T09:34:17;10.17;;;5.80;;
67941;SDS011;54731;42.600;23.476;2024-03-23T09:36:42;11.47;;;6.77;;
67941;SDS011;54731;42.600;23.476;2024-03-23T09:39:07;10.67;;;5.97;;
67941;SDS011;54731;42.600;23.476;2024-03-23T09:41:33;8.47;;;4.77;;
67941;SDS011;54731;42.600;23.476;2024-03-23T09:43:58;10.65;;;5.97;;
67941;SDS011;54731;42.600;23.476;2024-03-23T09:46:23;9.60;;;6.00;;
67941;SDS011;54731;42.600;23.476;2024-03-23T09:48:49;11.87;;;6.63;;
67941;SDS011;54731;42.600;23.476;2024-03-23T09:51:14;8.90;;;5.13;;
67941;SDS011;54731;42.600;23.476;2024-03-23T09:53:40;16.70;;;7.50;;
67941;SDS011;54731;42.600;23.476;2024-03-23T09:56:05;45.85;;;17.23;;
67941;SDS011;54731;42.600;23.476;2024-03-23T09:58:32;32.67;;;12.30;;
67941;SDS011;54731;42.600;23.476;2024-03-23T10:00:57;13.40;;;5.87;;
67941;SDS011;54731;42.600;23.476;2024-03-23T10:03:23;11.70;;;5.85;;
67941;SDS011;54731;42.600;23.476;2024-03-23T10:05:48;9.20;;;5.87;;
67941;SDS011;54731;42.600;23.476;2024-03-23T10:08:26;10.48;;;5.40;;
67941;SDS011;54731;42.600;23.476;2024-03-23T10:10:54;9.30;;;5.38;;
67941;SDS011;54731;42.600;23.476;2024-03-23T10:13:28;10.33;;;5.27;;
67941;SDS011;54731;42.600;23.476;2024-03-23T10:15:57;8.60;;;5.75;;
67941;SDS011;54731;42.600;23.476;2024-03-23T10:18:23;17.77;;;7.93;;
67941;SDS011;54731;42.600;23.476;2024-03-23T10:21:05;9.52;;;5.50;;
67941;SDS011;54731;42.600;23.476;2024-03-23T10:23:32;7.15;;;4.78;;
67941;SDS011;54731;42.600;23.476;2024-03-23T10:28:55;6.25;;;4.57;;
67941;SDS011;54731;42.600;23.476;2024-03-23T10:31:21;7.35;;;4.90;;
67941;SDS011;54731;42.600;23.476;2024-03-23T10:33:47;7.97;;;4.65;;
67941;SDS011;54731;42.600;23.476;2024-03-23T10:36:13;9.87;;;4.80;;
67941;SDS011;54731;42.600;23.476;2024-03-23T10:38:42;8.60;;;4.88;;
67941;SDS011;54731;42.600;23.476;2024-03-23T10:41:09;13.00;;;4.53;;
67941;SDS011;54731;42.600;23.476;2024-03-23T10:43:34;5.93;;;3.70;;
67941;SDS011;54731;42.600;23.476;2024-03-23T10:46:01;7.57;;;4.20;;
67941;SDS011;54731;42.600;23.476;2024-03-23T10:48:26;9.00;;;4.80;;
67941;SDS011;54731;42.600;23.476;2024-03-23T10:50:52;7.20;;;4.30;;
67941;SDS011;54731;42.600;23.476;2024-03-23T10:53:18;7.72;;;5.32;;
67941;SDS011;54731;42.600;23.476;2024-03-23T10:55:45;9.98;;;5.90;;
67941;SDS011;54731;42.600;23.476;2024-03-23T10:58:10;8.20;;;4.53;;
67941;SDS011;54731;42.600;23.476;2024-03-23T11:00:36;7.57;;;4.15;;
67941;SDS011;54731;42.600;23.476;2024-03-23T11:05:56;6.00;;;3.63;;
67941;SDS011;54731;42.600;23.476;2024-03-23T11:08:37;5.93;;;3.60;;
67941;SDS011;54731;42.600;23.476;2024-03-23T11:11:21;8.80;;;3.92;;
67941;SDS011;54731;42.600;23.476;2024-03-23T11:13:49;7.13;;;3.92;;
67941;SDS011;54731;42.600;23.476;2024-03-23T11:16:22;6.07;;;3.30;;
67941;SDS011;54731;42.600;23.476;2024-03-23T11:18:48;6.68;;;3.92;;
67941;SDS011;54731;42.600;23.476;2024-03-23T11:24:17;7.70;;;3.38;;
67941;SDS011;54731;42.600;23.476;2024-03-23T11:26:43;7.23;;;3.60;;
67941;SDS011;54731;42.600;23.476;2024-03-23T11:29:09;6.70;;;3.30;;
67941;SDS011;54731;42.600;23.476;2024-03-23T11:31:36;7.97;;;3.75;;
67941;SDS011;54731;42.600;23.476;2024-03-23T11:34:05;10.20;;;4.32;;
67941;SDS011;54731;42.600;23.476;2024-03-23T11:36:30;7.78;;;3.75;;
67941;SDS011;54731;42.600;23.476;2024-03-23T11:38:56;9.32;;;4.55;;
67941;SDS011;54731;42.600;23.476;2024-03-23T11:41:21;7.37;;;3.37;;
67941;SDS011;54731;42.600;23.476;2024-03-23T11:43:47;6.83;;;4.37;;
67941;SDS011;54731;42.600;23.476;2024-03-23T11:46:18;6.93;;;3.53;;
67941;SDS011;54731;42.600;23.476;2024-03-23T11:48:50;8.00;;;3.95;;
67941;SDS011;54731;42.600;23.476;2024-03-23T11:51:15;8.75;;;4.03;;
67941;SDS011;54731;42.600;23.476;2024-03-23T11:53:42;8.95;;;3.42;;
67941;SDS011;54731;42.600;23.476;2024-03-23T11:56:07;8.77;;;3.37;;
67941;SDS011;54731;42.600;23.476;2024-03-23T11:58:34;6.27;;;3.40;;
67941;SDS011;54731;42.600;23.476;2024-03-23T12:01:00;6.47;;;3.33;;
67941;SDS011;54731;42.600;23.476;2024-03-23T12:03:27;9.47;;;3.73;;
67941;SDS011;54731;42.600;23.476;2024-03-23T12:05:53;7.47;;;4.18;;
67941;SDS011;54731;42.600;23.476;2024-03-23T12:08:23;6.15;;;3.67;;
67941;SDS011;54731;42.600;23.476;2024-03-23T12:13:42;8.43;;;4.00;;
67941;SDS011;54731;42.600;23.476;2024-03-23T12:18:37;8.85;;;3.75;;
67941;SDS011;54731;42.600;23.476;2024-03-23T12:21:03;6.25;;;3.65;;
67941;SDS011;54731;42.600;23.476;2024-03-23T12:23:29;6.60;;;3.78;;
67941;SDS011;54731;42.600;23.476;2024-03-23T12:25:54;7.67;;;4.10;;
67941;SDS011;54731;42.600;23.476;2024-03-23T12:28:19;10.40;;;7.33;;
67941;SDS011;54731;42.600;23.476;2024-03-23T12:30:45;7.40;;;4.50;;
67941;SDS011;54731;42.600;23.476;2024-03-23T12:33:10;7.70;;;4.00;;
67941;SDS011;54731;42.600;23.476;2024-03-23T12:35:35;9.07;;;3.90;;
67941;SDS011;54731;42.600;23.476;2024-03-23T12:38:01;5.97;;;3.97;;
67941;SDS011;54731;42.600;23.476;2024-03-23T12:40:26;8.65;;;4.18;;
67941;SDS011;54731;42.600;23.476;2024-03-23T12:42:51;5.80;;;4.20;;
67941;SDS011;54731;42.600;23.476;2024-03-23T12:45:17;5.77;;;3.83;;
67941;SDS011;54731;42.600;23.476;2024-03-23T12:47:42;8.70;;;4.13;;
67941;SDS011;54731;42.600;23.476;2024-03-23T12:50:07;7.50;;;4.90;;
67941;SDS011;54731;42.600;23.476;2024-03-23T12:52:33;10.10;;;4.97;;
67941;SDS011;54731;42.600;23.476;2024-03-23T12:54:58;8.70;;;5.67;;
67941;SDS011;54731;42.600;23.476;2024-03-23T12:57:24;8.38;;;4.57;;
67941;SDS011;54731;42.600;23.476;2024-03-23T12:59:51;14.87;;;4.70;;
67941;SDS011;54731;42.600;23.476;2024-03-23T13:02:17;8.15;;;4.93;;
67941;SDS011;54731;42.600;23.476;2024-03-23T13:04:46;7.78;;;4.50;;
67941;SDS011;54731;42.600;23.476;2024-03-23T13:07:14;10.43;;;5.05;;
67941;SDS011;54731;42.600;23.476;2024-03-23T13:09:40;7.47;;;4.10;;
67941;SDS011;54731;42.600;23.476;2024-03-23T13:12:05;10.80;;;4.10;;
67941;SDS011;54731;42.600;23.476;2024-03-23T13:14:31;6.03;;;4.97;;
67941;SDS011;54731;42.600;23.476;2024-03-23T13:16:56;7.33;;;5.13;;
67941;SDS011;54731;42.600;23.476;2024-03-23T13:19:21;8.30;;;4.80;;
67941;SDS011;54731;42.600;23.476;2024-03-23T13:21:47;6.00;;;4.30;;
67941;SDS011;54731;42.600;23.476;2024-03-23T13:24:12;8.03;;;4.17;;
67941;SDS011;54731;42.600;23.476;2024-03-23T13:26:37;7.27;;;4.50;;
67941;SDS011;54731;42.600;23.476;2024-03-23T13:29:02;8.23;;;4.53;;
67941;SDS011;54731;42.600;23.476;2024-03-23T13:31:28;11.50;;;4.87;;
67941;SDS011;54731;42.600;23.476;2024-03-23T13:33:53;11.55;;;5.50;;
67941;SDS011;54731;42.600;23.476;2024-03-23T13:36:18;8.47;;;4.67;;
67941;SDS011;54731;42.600;23.476;2024-03-23T13:38:44;8.83;;;5.30;;
67941;SDS011;54731;42.600;23.476;2024-03-23T13:41:09;7.87;;;5.13;;
67941;SDS011;54731;42.600;23.476;2024-03-23T13:43:34;7.27;;;5.37;;
67941;SDS011;54731;42.600;23.476;2024-03-23T13:45:59;7.67;;;4.70;;
67941;SDS011;54731;42.600;23.476;2024-03-23T13:48:25;10.47;;;5.23;;
67941;SDS011;54731;42.600;23.476;2024-03-23T13:50:59;7.30;;;4.78;;
67941;SDS011;54731;42.600;23.476;2024-03-23T13:53:25;9.57;;;5.57;;
67941;SDS011;54731;42.600;23.476;2024-03-23T13:55:50;9.20;;;5.77;;
67941;SDS011;54731;42.600;23.476;2024-03-23T13:58:15;9.67;;;5.33;;
67941;SDS011;54731;42.600;23.476;2024-03-23T14:00:41;11.93;;;5.00;;
67941;SDS011;54731;42.600;23.476;2024-03-23T14:03:06;9.13;;;5.40;;
67941;SDS011;54731;42.600;23.476;2024-03-23T14:05:31;9.97;;;5.90;;
67941;SDS011;54731;42.600;23.476;2024-03-23T14:07:57;8.55;;;5.40;;
67941;SDS011;54731;42.600;23.476;2024-03-23T14:10:22;9.73;;;5.03;;
67941;SDS011;54731;42.600;23.476;2024-03-23T14:12:47;9.03;;;4.90;;
67941;SDS011;54731;42.600;23.476;2024-03-23T14:15:13;8.57;;;5.50;;
67941;SDS011;54731;42.600;23.476;2024-03-23T14:17:38;10.27;;;6.90;;
67941;SDS011;54731;42.600;23.476;2024-03-23T14:20:03;12.93;;;5.63;;
67941;SDS011;54731;42.600;23.476;2024-03-23T14:22:29;10.25;;;6.07;;
67941;SDS011;54731;42.600;23.476;2024-03-23T14:24:54;13.53;;;8.17;;
67941;SDS011;54731;42.600;23.476;2024-03-23T14:27:20;6.73;;;5.20;;
67941;SDS011;54731;42.600;23.476;2024-03-23T14:29:45;10.73;;;5.17;;
67941;SDS011;54731;42.600;23.476;2024-03-23T14:32:11;9.32;;;5.32;;
67941;SDS011;54731;42.600;23.476;2024-03-23T14:34:36;10.57;;;5.20;;
67941;SDS011;54731;42.600;23.476;2024-03-23T14:37:01;7.83;;;5.23;;
67941;SDS011;54731;42.600;23.476;2024-03-23T14:39:27;7.87;;;4.87;;
67941;SDS011;54731;42.600;23.476;2024-03-23T14:41:52;7.40;;;5.23;;
67941;SDS011;54731;42.600;23.476;2024-03-23T14:44:17;8.17;;;5.17;;
67941;SDS011;54731;42.600;23.476;2024-03-23T14:46:43;6.67;;;5.03;;
67941;SDS011;54731;42.600;23.476;2024-03-23T14:49:08;6.10;;;4.80;;
67941;SDS011;54731;42.600;23.476;2024-03-23T14:51:33;12.82;;;6.20;;
67941;SDS011;54731;42.600;23.476;2024-03-23T14:53:59;11.80;;;7.23;;
67941;SDS011;54731;42.600;23.476;2024-03-23T14:56:24;9.27;;;5.07;;
67941;SDS011;54731;42.600;23.476;2024-03-23T14:58:53;7.37;;;5.10;;
67941;SDS011;54731;42.600;23.476;2024-03-23T15:01:18;9.20;;;4.20;;
67941;SDS011;54731;42.600;23.476;2024-03-23T15:03:43;5.67;;;4.53;;
67941;SDS011;54731;42.600;23.476;2024-03-23T15:06:08;16.63;;;4.77;;
67941;SDS011;54731;42.600;23.476;2024-03-23T15:08:34;12.60;;;4.33;;
67941;SDS011;54731;42.600;23.476;2024-03-23T15:11:00;13.20;;;6.53;;
67941;SDS011;54731;42.600;23.476;2024-03-23T15:13:26;14.10;;;6.80;;
67941;SDS011;54731;42.600;23.476;2024-03-23T15:15:52;11.30;;;5.47;;
67941;SDS011;54731;42.600;23.476;2024-03-23T15:18:17;12.55;;;5.65;;
67941;SDS011;54731;42.600;23.476;2024-03-23T15:20:51;40.55;;;28.02;;
67941;SDS011;54731;42.600;23.476;2024-03-23T15:23:17;8.83;;;5.30;;
67941;SDS011;54731;42.600;23.476;2024-03-23T15:25:42;18.38;;;13.23;;
67941;SDS011;54731;42.600;23.476;2024-03-23T15:28:08;24.40;;;20.57;;